Time;durP1;ratioP1;P1;durP2;ratioP2;P2;SDS_P1;SDS_P2;PMS_P1;PMS_P2;Temp;Humidity;BMP_temperature;BMP_pressure;BME280_temperature;BME280_humidity;BME280_pressure;Samples;Min_cycle;Max_cycle;Signal;HPM_P1;HPM_P2
2023/04/26 00:01:17;;;;;;;;;;;11.90;99.90;;;;;;5074127;28;19916;-72
2023/04/26 00:03:43;;;;;;;;;;;11.90;99.90;;;;;;5056330;28;20280;-71
2023/04/26 00:06:09;;;;;;;;;;;11.90;99.90;;;;;;5074363;28;20368;-73
2023/04/26 00:08:37;;;;;;;;;;;11.90;99.90;;;;;;5056200;28;20349;-72
2023/04/26 00:11:03;;;;;;;;;;;11.80;99.90;;;;;;5056183;28;19908;-74
2023/04/26 00:13:29;;;;;;;;;;;11.80;99.90;;;;;;5073451;28;20372;-73
2023/04/26 00:15:54;;;;;;;;;;;11.80;99.90;;;;;;5074070;28;19913;-71
2023/04/26 00:18:20;;;;;;;;;;;11.80;99.90;;;;;;5073961;28;19908;-73
2023/04/26 00:20:46;;;;;;;;;;;11.70;99.90;;;;;;5074126;28;19944;-71
2023/04/26 00:23:12;;;;;;;;;;;11.70;99.90;;;;;;5073834;28;19913;-72
2023/04/26 00:25:37;;;;;;;;;;;11.70;99.90;;;;;;5074154;28;20400;-72
2023/04/26 00:28:03;;;;;;;;;;;11.70;99.90;;;;;;5073842;28;19915;-72
2023/04/26 00:30:29;;;;;;;;;;;11.70;99.90;;;;;;5074060;28;19951;-72
2023/04/26 00:32:55;;;;;;;;;;;11.70;99.90;;;;;;5073944;28;19908;-72
2023/04/26 00:35:20;;;;;;;;;;;11.80;99.90;;;;;;5073764;28;20387;-72
2023/04/26 00:37:46;;;;;;;;;;;11.70;99.90;;;;;;5073783;28;20440;-72
2023/04/26 00:40:12;;;;;;;;;;;11.70;99.90;;;;;;5073699;28;19908;-73
2023/04/26 00:42:38;;;;;;;;;;;11.60;99.90;;;;;;5073135;28;20389;-71
2023/04/26 00:45:06;;;;;;;;;;;11.60;99.90;;;;;;5073199;28;20197;-73
2023/04/26 00:47:32;;;;;;;;;;;11.60;99.90;;;;;;5073585;28;19918;-73
2023/04/26 00:49:58;;;;;;;;;;;11.50;99.90;;;;;;5073663;28;19954;-72
2023/04/26 00:52:24;;;;;;;;;;;11.60;99.90;;;;;;5073577;28;19962;-72
2023/04/26 00:54:50;;;;;;;;;;;11.50;99.90;;;;;;5073533;28;19908;-72
2023/04/26 00:57:15;;;;;;;;;;;11.50;99.90;;;;;;5073444;28;19915;-72
2023/04/26 00:59:41;;;;;;;;;;;11.50;99.90;;;;;;5073233;28;19909;-71
2023/04/26 01:02:07;;;;;;;;;;;11.60;99.90;;;;;;5073648;28;20373;-73
2023/04/26 01:04:33;;;;;;;;;;;11.60;99.90;;;;;;5073484;28;19987;-71
2023/04/26 01:07:00;;;;;;;;;;;11.50;99.90;;;;;;5073519;28;19912;-73
2023/04/26 01:09:27;;;;;;;;;;;11.50;99.90;;;;;;5073452;28;20311;-72
2023/04/26 01:11:55;;;;;;;;;;;11.40;99.90;;;;;;5073417;28;20368;-72
2023/04/26 01:14:21;;;;;;;;;;;11.40;99.90;;;;;;5055474;28;19912;-71
2023/04/26 01:16:48;;;;;;;;;;;11.40;99.90;;;;;;5073340;28;20292;-71
2023/04/26 01:19:15;;;;;;;;;;;11.40;99.90;;;;;;5073349;28;19909;-72
2023/04/26 01:21:41;;;;;;;;;;;11.40;99.90;;;;;;5073238;28;19913;-71
2023/04/26 01:24:11;;;;;;;;;;;11.30;99.90;;;;;;5074910;28;19908;-72
2023/04/26 01:26:45;;;;;;;;;;;11.30;99.90;;;;;;5077189;28;20399;-71
2023/04/26 01:29:14;;;;;;;;;;;11.30;99.90;;;;;;5077325;28;19944;-71
2023/04/26 01:31:40;;;;;;;;;;;11.30;99.90;;;;;;5077065;28;19912;-73
2023/04/26 01:34:05;;;;;;;;;;;11.30;99.90;;;;;;5077087;28;19912;-71
2023/04/26 01:36:31;;;;;;;;;;;11.30;99.90;;;;;;5077009;28;19970;-71
2023/04/26 01:38:57;;;;;;;;;;;11.20;99.90;;;;;;5077306;28;19912;-73
2023/04/26 01:41:23;;;;;;;;;;;11.20;99.90;;;;;;5076774;28;20296;-73
2023/04/26 01:43:49;;;;;;;;;;;11.30;99.90;;;;;;5058901;28;19923;-71
2023/04/26 01:46:14;;;;;;;;;;;11.30;99.90;;;;;;5076845;28;19909;-72
2023/04/26 01:48:40;;;;;;;;;;;11.30;99.90;;;;;;5058748;28;19909;-72
2023/04/26 01:51:06;;;;;;;;;;;11.40;99.90;;;;;;5076735;28;19909;-72
2023/04/26 01:53:31;;;;;;;;;;;11.40;99.90;;;;;;5076691;28;20289;-71
2023/04/26 01:56:01;;;;;;;;;;;11.30;99.90;;;;;;5076738;28;19916;-71
2023/04/26 01:58:27;;;;;;;;;;;11.40;99.90;;;;;;5076560;28;19991;-70
2023/04/26 02:00:52;;;;;;;;;;;11.30;99.90;;;;;;5076551;28;20403;-71
2023/04/26 02:03:18;;;;;;;;;;;11.30;99.90;;;;;;5076764;28;20086;-73
2023/04/26 02:05:43;;;;;;;;;;;11.30;99.90;;;;;;5076739;28;19999;-72
2023/04/26 02:08:09;;;;;;;;;;;11.30;99.90;;;;;;5076410;28;19915;-73
2023/04/26 02:10:35;;;;;;;;;;;11.30;99.90;;;;;;5076348;28;19958;-73
2023/04/26 02:13:01;;;;;;;;;;;11.30;99.90;;;;;;5076362;28;20352;-72
2023/04/26 02:15:27;;;;;;;;;;;11.30;99.90;;;;;;5076767;28;20003;-73
2023/04/26 02:17:54;;;;;;;;;;;11.30;99.90;;;;;;5076281;28;20286;-72
2023/04/26 02:20:20;;;;;;;;;;;11.30;99.90;;;;;;5076309;28;20349;-72
2023/04/26 02:22:45;;;;;;;;;;;11.30;99.90;;;;;;5076124;28;19958;-72
2023/04/26 02:25:11;;;;;;;;;;;11.30;99.90;;;;;;5076512;28;20003;-72
2023/04/26 02:27:37;;;;;;;;;;;11.30;99.90;;;;;;5076117;28;20331;-72
2023/04/26 02:30:03;;;;;;;;;;;11.30;99.90;;;;;;5076051;28;19909;-70
2023/04/26 02:32:28;;;;;;;;;;;11.30;99.90;;;;;;5076131;28;20045;-72
2023/04/26 02:34:54;;;;;;;;;;;11.30;99.90;;;;;;5075624;28;19939;-72
2023/04/26 02:37:21;;;;;;;;;;;11.30;99.90;;;;;;5075736;28;20296;-72
2023/04/26 02:39:50;;;;;;;;;;;11.40;99.90;;;;;;5075841;28;19995;-72
2023/04/26 02:42:16;;;;;;;;;;;11.30;99.90;;;;;;5075680;28;19928;-72
2023/04/26 02:44:41;;;;;;;;;;;11.40;99.90;;;;;;5075743;28;19909;-72
2023/04/26 02:47:07;;;;;;;;;;;11.40;99.90;;;;;;5075736;28;19908;-71
2023/04/26 02:49:33;;;;;;;;;;;11.40;99.90;;;;;;5075656;28;20388;-72
2023/04/26 02:51:59;;;;;;;;;;;11.30;99.90;;;;;;5075565;28;19913;-72
2023/04/26 02:54:25;;;;;;;;;;;11.30;99.90;;;;;;5075570;28;19912;-72
2023/04/26 02:56:50;;;;;;;;;;;11.30;99.90;;;;;;5075505;28;19909;-73
2023/04/26 02:59:16;;;;;;;;;;;11.20;99.90;;;;;;5075531;28;19909;-72
2023/04/26 03:01:42;;;;;;;;;;;11.20;99.90;;;;;;5075344;28;20003;-71
2023/04/26 03:04:07;;;;;;;;;;;11.30;99.90;;;;;;5075698;28;19908;-71
2023/04/26 03:06:33;;;;;;;;;;;11.30;99.90;;;;;;5075426;28;20308;-72
2023/04/26 03:08:59;;;;;;;;;;;11.20;99.90;;;;;;5075260;28;19965;-72
2023/04/26 03:11:24;;;;;;;;;;;11.20;99.90;;;;;;5075184;28;19992;-72
2023/04/26 03:13:50;;;;;;;;;;;11.20;99.90;;;;;;5057226;28;19994;-71
2023/04/26 03:16:18;;;;;;;;;;;11.20;99.90;;;;;;5075110;28;20479;-72
2023/04/26 03:18:44;;;;;;;;;;;11.20;99.90;;;;;;5075066;28;19909;-72
2023/04/26 03:21:09;;;;;;;;;;;11.30;99.90;;;;;;5074986;28;19916;-70
2023/04/26 03:23:35;;;;;;;;;;;11.30;99.90;;;;;;5074946;28;19914;-72
2023/04/26 03:26:01;;;;;;;;;;;11.20;99.90;;;;;;5075099;28;19913;-72
2023/04/26 03:28:26;;;;;;;;;;;11.20;99.90;;;;;;5056931;28;19915;-73
2023/04/26 03:30:52;;;;;;;;;;;11.20;99.90;;;;;;5074991;28;19908;-71
2023/04/26 03:33:17;;;;;;;;;;;11.20;99.90;;;;;;5074858;28;19912;-71
2023/04/26 03:35:43;;;;;;;;;;;11.20;99.90;;;;;;5074707;28;19958;-73
2023/04/26 03:38:08;;;;;;;;;;;11.20;99.90;;;;;;5056738;28;19999;-73
2023/04/26 03:40:34;;;;;;;;;;;11.10;99.90;;;;;;5074909;28;19914;-72
2023/04/26 03:43:00;;;;;;;;;;;11.10;99.90;;;;;;5074386;28;20344;-72
2023/04/26 03:45:26;;;;;;;;;;;11.10;99.90;;;;;;5074693;28;19995;-72
2023/04/26 03:47:51;;;;;;;;;;;11.00;99.90;;;;;;5073565;28;20344;-72
2023/04/26 03:50:18;;;;;;;;;;;11.00;99.90;;;;;;5074499;28;19915;-72
2023/04/26 03:52:44;;;;;;;;;;;11.00;99.90;;;;;;5074534;28;20327;-72
2023/04/26 03:55:10;;;;;;;;;;;11.00;99.90;;;;;;5056425;28;19920;-71
2023/04/26 03:57:36;;;;;;;;;;;11.00;99.90;;;;;;5056681;28;20276;-72
2023/04/26 04:00:06;;;;;;;;;;;11.00;99.90;;;;;;5056292;28;19916;-72
2023/04/26 04:02:32;;;;;;;;;;;10.90;99.90;;;;;;5074117;28;19959;-72
2023/04/26 04:04:57;;;;;;;;;;;11.00;99.90;;;;;;5074142;28;19908;-70
2023/04/26 04:07:23;;;;;;;;;;;11.00;99.90;;;;;;5074247;28;19909;-71
2023/04/26 04:09:48;;;;;;;;;;;11.00;99.90;;;;;;5074315;28;20364;-71
2023/04/26 04:12:14;;;;;;;;;;;10.90;99.90;;;;;;5074070;28;19909;-73
2023/04/26 04:14:40;;;;;;;;;;;10.90;99.90;;;;;;5074064;28;19908;-72
2023/04/26 04:17:06;;;;;;;;;;;10.80;99.90;;;;;;5074212;28;19908;-72
2023/04/26 04:19:31;;;;;;;;;;;10.80;99.90;;;;;;5074007;28;19951;-72
2023/04/26 04:21:57;;;;;;;;;;;10.70;99.90;;;;;;5073911;28;19959;-73
2023/04/26 04:24:22;;;;;;;;;;;10.60;99.90;;;;;;5074265;28;19935;-72
2023/04/26 04:26:48;;;;;;;;;;;10.60;99.90;;;;;;5073906;28;20026;-71
2023/04/26 04:29:14;;;;;;;;;;;10.60;99.90;;;;;;5073890;28;19908;-72
2023/04/26 04:31:40;;;;;;;;;;;10.50;99.90;;;;;;5073825;28;19909;-71
2023/04/26 04:34:05;;;;;;;;;;;10.50;99.90;;;;;;5073625;28;20289;-72
2023/04/26 04:36:32;;;;;;;;;;;10.50;99.90;;;;;;5073804;28;19999;-71
2023/04/26 04:38:58;;;;;;;;;;;10.50;99.90;;;;;;5073767;28;19916;-73
2023/04/26 04:41:23;;;;;;;;;;;10.40;99.90;;;;;;5073180;28;20296;-72
2023/04/26 04:43:49;;;;;;;;;;;10.50;99.90;;;;;;5073652;28;19917;-72
2023/04/26 04:46:15;;;;;;;;;;;10.50;99.90;;;;;;5073694;28;19912;-71
2023/04/26 04:48:41;;;;;;;;;;;10.50;99.90;;;;;;5073730;28;19915;-71
2023/04/26 04:51:06;;;;;;;;;;;10.50;99.90;;;;;;5073644;28;19916;-72
2023/04/26 04:53:32;;;;;;;;;;;10.50;99.90;;;;;;5073653;28;20361;-72
2023/04/26 04:55:58;;;;;;;;;;;10.50;99.90;;;;;;5073748;28;19913;-72
2023/04/26 04:58:23;;;;;;;;;;;10.60;99.90;;;;;;5073866;28;19954;-73
2023/04/26 05:00:50;;;;;;;;;;;10.60;99.90;;;;;;5077725;28;19944;-71
2023/04/26 05:03:15;;;;;;;;;;;10.60;99.90;;;;;;5077589;28;20004;-71
2023/04/26 05:05:41;;;;;;;;;;;10.60;99.90;;;;;;5077666;28;19951;-72
2023/04/26 05:08:07;;;;;;;;;;;10.70;99.90;;;;;;5077903;28;20254;-72
2023/04/26 05:10:33;;;;;;;;;;;10.70;99.90;;;;;;5077557;28;19909;-73
2023/04/26 05:12:59;;;;;;;;;;;10.70;99.90;;;;;;5077635;28;19965;-73
2023/04/26 05:15:24;;;;;;;;;;;10.70;99.90;;;;;;5059424;28;19938;-72
2023/04/26 05:17:50;;;;;;;;;;;10.50;99.90;;;;;;5059449;28;19916;-72
2023/04/26 05:20:16;;;;;;;;;;;10.50;99.90;;;;;;5077325;28;20375;-74
2023/04/26 05:22:41;;;;;;;;;;;10.40;99.90;;;;;;5059230;28;20381;-74
2023/04/26 05:25:07;;;;;;;;;;;10.40;99.90;;;;;;5059263;28;19908;-73
2023/04/26 05:27:33;;;;;;;;;;;10.40;99.90;;;;;;5077327;28;19908;-73
2023/04/26 05:30:03;;;;;;;;;;;10.50;99.90;;;;;;5077151;28;19912;-73
2023/04/26 05:32:28;;;;;;;;;;;10.60;99.90;;;;;;5077128;28;19908;-73
2023/04/26 05:34:54;;;;;;;;;;;10.60;99.90;;;;;;5059422;28;19909;-74
2023/04/26 05:37:20;;;;;;;;;;;10.60;99.90;;;;;;5077028;28;19948;-74
2023/04/26 05:39:45;;;;;;;;;;;10.60;99.90;;;;;;5076948;28;20292;-72
2023/04/26 05:42:11;;;;;;;;;;;10.60;99.90;;;;;;5076665;28;19952;-74
2023/04/26 05:44:36;;;;;;;;;;;10.60;99.90;;;;;;5076900;28;20418;-74
2023/04/26 05:47:02;;;;;;;;;;;10.60;99.90;;;;;;5077085;28;19931;-73
2023/04/26 05:49:28;;;;;;;;;;;10.70;99.90;;;;;;5076716;28;19957;-73
2023/04/26 05:51:53;;;;;;;;;;;10.70;99.90;;;;;;5076736;28;19908;-72
2023/04/26 05:54:19;;;;;;;;;;;10.70;99.90;;;;;;5076699;28;19919;-73
2023/04/26 05:56:44;;;;;;;;;;;10.70;99.90;;;;;;5076569;28;19908;-72
2023/04/26 05:59:12;;;;;;;;;;;10.80;99.90;;;;;;5076651;28;19995;-74
2023/04/26 06:01:38;;;;;;;;;;;10.80;99.90;;;;;;5076485;28;19912;-73
2023/04/26 06:04:04;;;;;;;;;;;10.80;99.90;;;;;;5076543;28;19913;-73
2023/04/26 06:06:30;;;;;;;;;;;10.80;99.90;;;;;;5076323;28;19912;-74
2023/04/26 06:08:56;;;;;;;;;;;10.70;99.90;;;;;;5076454;28;20388;-73
2023/04/26 06:11:22;;;;;;;;;;;10.70;99.90;;;;;;5057335;28;19908;-73
2023/04/26 06:13:47;;;;;;;;;;;10.80;99.90;;;;;;5076342;28;19978;-74
2023/04/26 06:16:13;;;;;;;;;;;10.90;99.90;;;;;;5058307;28;19944;-74
2023/04/26 06:18:38;;;;;;;;;;;10.90;99.90;;;;;;5076235;28;19951;-74
2023/04/26 06:21:04;;;;;;;;;;;10.80;99.90;;;;;;5076403;28;19908;-73
2023/04/26 06:23:30;;;;;;;;;;;10.90;99.90;;;;;;5076073;28;19959;-72
2023/04/26 06:25:55;;;;;;;;;;;10.90;99.90;;;;;;5058234;28;20384;-73
2023/04/26 06:28:21;;;;;;;;;;;10.90;99.90;;;;;;5076084;28;19909;-73
2023/04/26 06:30:46;;;;;;;;;;;10.80;99.90;;;;;;5076453;28;19908;-72
2023/04/26 06:33:12;;;;;;;;;;;10.80;99.90;;;;;;5058022;28;20004;-75
2023/04/26 06:35:40;;;;;;;;;;;10.90;99.90;;;;;;5076114;28;20315;-74
2023/04/26 06:38:06;;;;;;;;;;;10.80;99.90;;;;;;5075931;28;19908;-71
2023/04/26 06:40:32;;;;;;;;;;;10.80;99.90;;;;;;5075907;28;20318;-73
2023/04/26 06:42:57;;;;;;;;;;;10.90;99.90;;;;;;5057327;28;20398;-72
2023/04/26 06:45:23;;;;;;;;;;;10.90;99.90;;;;;;5076040;28;19915;-74
2023/04/26 06:47:52;;;;;;;;;;;11.00;99.90;;;;;;5075880;28;20288;-72
2023/04/26 06:50:17;;;;;;;;;;;11.10;99.90;;;;;;5075654;28;19995;-74
2023/04/26 06:52:43;;;;;;;;;;;11.10;99.90;;;;;;5075800;28;19948;-72
2023/04/26 06:55:09;;;;;;;;;;;11.10;99.90;;;;;;5075810;28;19970;-74
2023/04/26 06:57:34;;;;;;;;;;;11.20;99.90;;;;;;5075451;28;19909;-73
2023/04/26 07:00:00;;;;;;;;;;;11.20;99.90;;;;;;5075510;28;20298;-74
2023/04/26 07:02:26;;;;;;;;;;;11.30;99.90;;;;;;5075561;28;19912;-74
2023/04/26 07:04:51;;;;;;;;;;;11.30;99.90;;;;;;5057394;28;19916;-73
2023/04/26 07:07:17;;;;;;;;;;;11.30;99.90;;;;;;5075487;28;19944;-73
2023/04/26 07:09:43;;;;;;;;;;;11.40;99.90;;;;;;5075348;28;19908;-74
2023/04/26 07:12:11;;;;;;;;;;;11.30;99.90;;;;;;5075243;28;20365;-74
2023/04/26 07:14:42;;;;;;;;;;;11.20;99.90;;;;;;5075167;28;19908;-73
2023/04/26 07:17:11;;;;;;;;;;;11.30;99.90;;;;;;5075341;28;20289;-73
2023/04/26 07:19:36;;;;;;;;;;;11.40;99.90;;;;;;5075531;28;19909;-74
2023/04/26 07:22:03;;;;;;;;;;;11.40;99.90;;;;;;5074868;28;19913;-74
2023/04/26 07:24:29;;;;;;;;;;;11.50;99.90;;;;;;5057029;28;19908;-73
2023/04/26 07:26:55;;;;;;;;;;;11.50;99.90;;;;;;5074924;28;19915;-72
2023/04/26 07:29:21;;;;;;;;;;;11.60;99.90;;;;;;5056961;28;20280;-73
2023/04/26 07:31:46;;;;;;;;;;;11.70;99.90;;;;;;5074876;28;19909;-73
2023/04/26 07:34:12;;;;;;;;;;;11.80;99.90;;;;;;5074827;28;19932;-73
2023/04/26 07:36:41;;;;;;;;;;;11.70;99.90;;;;;;5074891;28;19915;-71
2023/04/26 07:39:08;;;;;;;;;;;11.70;99.90;;;;;;5056794;28;19909;-74
2023/04/26 07:41:34;;;;;;;;;;;11.70;99.90;;;;;;5074430;28;19959;-74
2023/04/26 07:44:00;;;;;;;;;;;11.80;99.90;;;;;;5074589;28;19955;-73
2023/04/26 07:46:25;;;;;;;;;;;11.80;99.90;;;;;;5074567;28;20376;-73
2023/04/26 07:48:51;;;;;;;;;;;11.80;99.90;;;;;;5074799;28;19913;-72
2023/04/26 07:51:16;;;;;;;;;;;11.80;99.90;;;;;;5074497;28;19909;-73
2023/04/26 07:53:42;;;;;;;;;;;11.80;99.90;;;;;;5074508;28;19908;-74
2023/04/26 07:56:08;;;;;;;;;;;11.70;99.90;;;;;;5074381;28;20311;-73
2023/04/26 07:58:34;;;;;;;;;;;11.70;99.90;;;;;;5074269;28;20317;-72
2023/04/26 08:01:01;;;;;;;;;;;11.70;99.90;;;;;;5074379;28;19958;-74
2023/04/26 08:03:27;;;;;;;;;;;11.60;99.90;;;;;;5074162;28;20365;-73
2023/04/26 08:05:53;;;;;;;;;;;11.70;99.90;;;;;;5074223;28;19909;-72
2023/04/26 08:08:18;;;;;;;;;;;11.70;99.90;;;;;;5074153;28;19915;-73
2023/04/26 08:10:44;;;;;;;;;;;11.80;99.90;;;;;;5074474;28;19908;-71
2023/04/26 08:13:10;;;;;;;;;;;11.90;99.90;;;;;;5074074;28;19908;-73
2023/04/26 08:15:36;;;;;;;;;;;11.80;99.90;;;;;;5056042;28;19908;-73
2023/04/26 08:18:01;;;;;;;;;;;11.90;99.90;;;;;;5074094;28;19991;-73
2023/04/26 08:20:27;;;;;;;;;;;11.90;99.90;;;;;;5073996;28;19932;-73
2023/04/26 08:22:55;;;;;;;;;;;12.10;99.90;;;;;;5073902;28;19912;-75
2023/04/26 08:25:21;;;;;;;;;;;12.00;99.90;;;;;;5073909;28;19909;-73
2023/04/26 08:27:47;;;;;;;;;;;12.10;99.90;;;;;;5074008;28;19916;-74
2023/04/26 08:30:13;;;;;;;;;;;11.90;99.90;;;;;;5073867;28;19909;-74
2023/04/26 08:32:39;;;;;;;;;;;11.80;99.90;;;;;;5074231;28;19992;-73
2023/04/26 08:35:05;;;;;;;;;;;12.20;99.90;;;;;;5073285;28;19912;-73
2023/04/26 08:37:31;;;;;;;;;;;12.10;99.90;;;;;;5073767;28;20345;-74
2023/04/26 08:39:56;;;;;;;;;;;12.10;99.90;;;;;;5073774;28;19909;-74
2023/04/26 08:42:25;;;;;;;;;;;12.20;99.90;;;;;;5073545;28;19944;-73
2023/04/26 08:44:51;;;;;;;;;;;12.20;99.90;;;;;;5073696;28;19908;-75
2023/04/26 08:47:24;;;;;;;;;;;12.20;99.90;;;;;;5073667;28;19908;-73
2023/04/26 08:49:58;;;;;;;;;;;12.60;99.90;;;;;;5073671;28;19913;-73
2023/04/26 08:52:27;;;;;;;;;;;12.70;99.90;;;;;;5073609;28;19962;-72
2023/04/26 08:54:54;;;;;;;;;;;12.80;99.90;;;;;;5055528;28;20370;-73
2023/04/26 08:57:20;;;;;;;;;;;12.80;99.90;;;;;;5073670;28;19913;-74
2023/04/26 08:59:46;;;;;;;;;;;12.80;99.90;;;;;;5073669;28;19908;-74
2023/04/26 09:02:19;;;;;;;;;;;12.70;99.90;;;;;;5073404;28;19917;-72
2023/04/26 09:04:49;;;;;;;;;;;12.60;99.90;;;;;;5073642;28;20357;-74
2023/04/26 09:07:19;;;;;;;;;;;12.40;99.90;;;;;;5073384;28;20365;-73
2023/04/26 09:09:46;;;;;;;;;;;12.50;99.90;;;;;;5073564;28;19958;-73
2023/04/26 09:12:12;;;;;;;;;;;12.30;99.90;;;;;;5055396;28;19908;-74
2023/04/26 09:14:37;;;;;;;;;;;12.40;99.90;;;;;;5073381;28;19915;-73
2023/04/26 09:17:03;;;;;;;;;;;12.20;99.90;;;;;;5073366;28;20387;-72
2023/04/26 09:19:36;;;;;;;;;;;12.30;99.90;;;;;;5073489;28;19912;-74
2023/04/26 09:22:07;;;;;;;;;;;12.40;99.90;;;;;;5073263;28;19913;-73
2023/04/26 09:24:45;;;;;;;;;;;12.60;99.90;;;;;;5055023;28;19908;-72
2023/04/26 09:27:11;;;;;;;;;;;12.70;99.90;;;;;;5073470;28;19947;-72
2023/04/26 09:29:37;;;;;;;;;;;12.90;99.90;;;;;;5073294;28;19908;-73
2023/04/26 09:32:02;;;;;;;;;;;13.20;99.90;;;;;;5073190;28;19908;-74
2023/04/26 09:34:29;;;;;;;;;;;13.30;99.90;;;;;;5073199;28;20431;-73
2023/04/26 09:36:55;;;;;;;;;;;13.50;99.90;;;;;;5073593;28;19955;-73
2023/04/26 09:39:33;;;;;;;;;;;13.80;99.90;;;;;;5073203;28;20042;-74
2023/04/26 09:42:02;;;;;;;;;;;13.70;99.90;;;;;;5072914;28;20016;-73
2023/04/26 09:44:30;;;;;;;;;;;13.60;99.90;;;;;;5073553;28;19915;-74
2023/04/26 09:47:00;;;;;;;;;;;13.40;99.90;;;;;;5059283;28;19908;-74
2023/04/26 09:49:27;;;;;;;;;;;13.30;99.90;;;;;;5077299;28;19909;-74
2023/04/26 09:52:03;;;;;;;;;;;13.30;99.90;;;;;;5076811;28;19909;-72
2023/04/26 09:54:44;;;;;;;;;;;13.20;99.90;;;;;;5076764;28;19912;-73
2023/04/26 09:57:11;;;;;;;;;;;13.50;99.90;;;;;;5076865;28;20380;-74
2023/04/26 09:59:39;;;;;;;;;;;13.80;99.90;;;;;;5076641;28;20023;-73
2023/04/26 10:02:09;;;;;;;;;;;14.00;99.90;;;;;;5076481;28;19927;-72
2023/04/26 10:04:35;;;;;;;;;;;14.10;99.90;;;;;;5076698;28;19931;-72
2023/04/26 10:07:01;;;;;;;;;;;14.10;99.90;;;;;;5076656;28;19912;-74
2023/04/26 10:09:26;;;;;;;;;;;14.10;99.90;;;;;;5076425;28;19916;-73
2023/04/26 10:11:52;;;;;;;;;;;14.30;99.90;;;;;;5076361;28;19913;-73
2023/04/26 10:14:18;;;;;;;;;;;14.50;99.90;;;;;;5058335;28;19912;-73
2023/04/26 10:16:44;;;;;;;;;;;14.70;99.90;;;;;;5076628;28;19909;-75
2023/04/26 10:19:10;;;;;;;;;;;14.80;99.90;;;;;;5076323;28;19912;-74
2023/04/26 10:21:37;;;;;;;;;;;14.80;99.90;;;;;;5076220;28;19922;-74
2023/04/26 10:24:02;;;;;;;;;;;14.80;99.90;;;;;;5076249;28;19947;-73
2023/04/26 10:26:52;;;;;;;;;;;14.90;99.90;;;;;;5076168;28;20296;-74
2023/04/26 10:29:20;;;;;;;;;;;15.00;99.90;;;;;;5076187;28;19908;-74
2023/04/26 10:32:03;;;;;;;;;;;15.00;99.90;;;;;;5058052;28;19915;-73
2023/04/26 10:34:32;;;;;;;;;;;15.20;99.90;;;;;;5075929;28;20015;-72
2023/04/26 10:37:07;;;;;;;;;;;15.50;99.90;;;;;;5076095;28;19908;-74
2023/04/26 10:39:33;;;;;;;;;;;15.50;99.90;;;;;;5057968;28;19908;-74
2023/04/26 10:42:22;;;;;;;;;;;15.20;99.90;;;;;;5075635;28;20281;-72
2023/04/26 10:44:53;;;;;;;;;;;15.40;99.90;;;;;;5070281;28;19908;-73
2023/04/26 10:47:20;;;;;;;;;;;15.50;99.90;;;;;;5075875;28;20066;-73
2023/04/26 10:49:47;;;;;;;;;;;15.40;99.90;;;;;;5075736;28;19915;-73
2023/04/26 10:52:16;;;;;;;;;;;15.40;99.90;;;;;;5075722;28;19908;-73
2023/04/26 10:54:48;;;;;;;;;;;15.40;99.90;;;;;;5075638;28;19916;-73
2023/04/26 10:57:14;;;;;;;;;;;15.40;99.90;;;;;;5074960;28;20373;-74
2023/04/26 11:00:00;;;;;;;;;;;15.10;99.90;;;;;;5075630;28;19961;-73
2023/04/26 11:02:45;;;;;;;;;;;14.90;99.90;;;;;;5075530;28;19919;-73
2023/04/26 11:05:24;;;;;;;;;;;15.00;99.90;;;;;;5075562;28;19908;-73
2023/04/26 11:08:02;;;;;;;;;;;15.20;99.90;;;;;;5075412;28;19919;-74
2023/04/26 11:10:28;;;;;;;;;;;15.30;99.90;;;;;;5075583;28;19909;-75
2023/04/26 11:13:02;;;;;;;;;;;15.80;99.90;;;;;;5075603;28;20038;-74
2023/04/26 11:15:28;;;;;;;;;;;16.20;99.90;;;;;;5057267;28;20360;-74
2023/04/26 11:17:53;;;;;;;;;;;16.50;99.90;;;;;;5075198;28;19915;-72
2023/04/26 11:20:19;;;;;;;;;;;16.70;99.90;;;;;;5075135;28;19913;-74
2023/04/26 11:22:45;;;;;;;;;;;16.60;99.90;;;;;;5075150;28;20434;-73
2023/04/26 11:25:12;;;;;;;;;;;16.90;99.90;;;;;;5075026;28;19939;-72
2023/04/26 11:27:37;;;;;;;;;;;16.60;99.90;;;;;;5075020;28;19909;-73
2023/04/26 11:30:03;;;;;;;;;;;17.00;99.90;;;;;;5074910;28;19908;-75
2023/04/26 11:32:29;;;;;;;;;;;16.90;99.90;;;;;;5074845;28;19959;-75
2023/04/26 11:34:59;;;;;;;;;;;17.80;99.90;;;;;;5074834;28;19943;-73
2023/04/26 11:37:24;;;;;;;;;;;18.60;99.90;;;;;;5075006;28;19922;-74
2023/04/26 11:39:50;;;;;;;;;;;18.50;99.90;;;;;;5074697;28;20307;-74
2023/04/26 11:42:15;;;;;;;;;;;17.90;99.90;;;;;;5074374;28;19920;-72
2023/04/26 11:44:41;;;;;;;;;;;17.50;99.90;;;;;;5074695;28;20377;-74
2023/04/26 11:47:07;;;;;;;;;;;17.30;99.90;;;;;;5074902;28;19961;-73
2023/04/26 11:49:35;;;;;;;;;;;17.20;99.90;;;;;;5056687;28;19909;-74
2023/04/26 11:52:01;;;;;;;;;;;17.20;99.90;;;;;;5074575;28;20026;-74
2023/04/26 11:54:29;;;;;;;;;;;17.80;99.90;;;;;;5056488;28;20364;-74
2023/04/26 11:56:54;;;;;;;;;;;18.30;99.90;;;;;;5074528;28;19916;-73
2023/04/26 11:59:24;;;;;;;;;;;18.40;99.90;;;;;;5074276;28;20289;-72
2023/04/26 12:01:50;;;;;;;;;;;18.60;99.90;;;;;;5074193;28;19920;-73
2023/04/26 12:04:15;;;;;;;;;;;19.00;99.90;;;;;;5074642;28;19908;-74
2023/04/26 12:06:42;;;;;;;;;;;20.00;99.90;;;;;;5074380;28;20335;-74
2023/04/26 12:09:08;;;;;;;;;;;21.60;99.90;;;;;;5073407;28;20323;-75
2023/04/26 12:11:33;;;;;;;;;;;21.90;99.90;;;;;;5074095;28;19915;-74
2023/04/26 12:14:00;;;;;;;;;;;22.30;99.90;;;;;;5056168;28;19913;-76
2023/04/26 12:16:25;;;;;;;;;;;22.00;99.90;;;;;;5074193;28;20380;-73
2023/04/26 12:18:51;;;;;;;;;;;22.00;99.90;;;;;;5074050;28;19916;-74
2023/04/26 12:21:17;;;;;;;;;;;22.50;99.90;;;;;;5073999;28;19913;-74
2023/04/26 12:23:46;;;;;;;;;;;23.40;99.90;;;;;;5073875;28;19919;-74
2023/04/26 12:26:12;;;;;;;;;;;24.80;99.90;;;;;;5074294;28;19909;-74
2023/04/26 12:28:38;;;;;;;;;;;25.30;99.90;;;;;;5073895;28;19909;-73
2023/04/26 12:31:05;;;;;;;;;;;24.00;99.90;;;;;;5074031;28;19916;-74
2023/04/26 12:33:31;;;;;;;;;;;23.10;99.90;;;;;;5073828;28;19999;-74
2023/04/26 12:35:59;;;;;;;;;;;22.50;99.90;;;;;;5073799;28;19999;-74
2023/04/26 12:38:24;;;;;;;;;;;22.60;99.90;;;;;;5073909;28;19995;-72
2023/04/26 12:40:50;;;;;;;;;;;22.50;99.90;;;;;;5073466;28;19909;-74
2023/04/26 12:43:16;;;;;;;;;;;22.50;99.90;;;;;;5073694;28;20292;-75
2023/04/26 12:45:41;;;;;;;;;;;22.40;99.90;;;;;;5073687;28;19909;-74
2023/04/26 12:48:07;;;;;;;;;;;21.70;99.90;;;;;;5073694;28;20399;-75
2023/04/26 12:50:33;;;;;;;;;;;21.10;99.90;;;;;;5073653;28;20285;-74
2023/04/26 12:52:58;;;;;;;;;;;20.90;99.90;;;;;;5055626;28;20003;-74
2023/04/26 12:55:24;;;;;;;;;;;20.30;99.90;;;;;;5074042;28;19916;-75
2023/04/26 12:57:49;;;;;;;;;;;20.10;99.90;;;;;;5073525;28;20269;-74
2023/04/26 13:00:16;;;;;;;;;;;20.00;99.90;;;;;;5073515;28;19916;-73
2023/04/26 13:02:42;;;;;;;;;;;19.90;99.90;;;;;;5055469;28;19944;-76
2023/04/26 13:05:08;;;;;;;;;;;19.90;99.90;;;;;;5073477;28;19909;-73
2023/04/26 13:07:34;;;;;;;;;;;19.70;99.90;;;;;;5073727;28;19916;-73
2023/04/26 13:10:00;;;;;;;;;;;19.30;99.90;;;;;;5073634;28;19987;-72
2023/04/26 13:12:26;;;;;;;;;;;19.40;99.90;;;;;;5055456;28;19993;-74
2023/04/26 13:14:52;;;;;;;;;;;19.80;99.90;;;;;;5073464;28;20296;-74
2023/04/26 13:17:18;;;;;;;;;;;20.30;99.90;;;;;;5073616;28;19914;-73
2023/04/26 13:19:43;;;;;;;;;;;20.30;99.90;;;;;;5074317;28;19947;-74
2023/04/26 13:22:10;;;;;;;;;;;19.50;99.90;;;;;;5077300;28;20007;-73
2023/04/26 13:24:35;;;;;;;;;;;19.20;99.90;;;;;;5059322;28;19924;-73
2023/04/26 13:27:02;;;;;;;;;;;19.20;99.90;;;;;;5059321;28;19912;-74
2023/04/26 13:29:28;;;;;;;;;;;19.30;99.90;;;;;;5077227;28;19915;-74
2023/04/26 13:31:53;;;;;;;;;;;19.60;99.90;;;;;;5077610;28;19934;-74
2023/04/26 13:34:19;;;;;;;;;;;19.80;99.90;;;;;;5059076;28;20368;-73
2023/04/26 13:36:45;;;;;;;;;;;19.70;99.90;;;;;;5077060;28;19908;-73
2023/04/26 13:39:10;;;;;;;;;;;19.40;99.90;;;;;;5077035;28;19909;-74
2023/04/26 13:41:36;;;;;;;;;;;19.40;99.90;;;;;;5076668;28;19920;-73
2023/04/26 13:44:03;;;;;;;;;;;19.80;99.90;;;;;;5076853;28;19909;-73
2023/04/26 13:46:29;;;;;;;;;;;19.50;99.90;;;;;;5076944;28;19991;-74
2023/04/26 13:48:55;;;;;;;;;;;19.90;99.90;;;;;;5076960;28;19940;-73
2023/04/26 13:51:21;;;;;;;;;;;21.00;99.90;;;;;;5076829;28;19909;-73
2023/04/26 13:53:46;;;;;;;;;;;21.50;99.90;;;;;;5076983;28;19909;-74
2023/04/26 13:56:12;;;;;;;;;;;21.30;99.90;;;;;;5076717;28;19999;-74
2023/04/26 13:58:39;;;;;;;;;;;20.90;99.90;;;;;;5076786;28;19909;-73
2023/04/26 14:01:04;;;;;;;;;;;20.80;99.90;;;;;;5076645;28;19909;-73
2023/04/26 14:03:31;;;;;;;;;;;20.20;99.90;;;;;;5076834;28;19962;-75
2023/04/26 14:05:56;;;;;;;;;;;19.90;99.90;;;;;;5058599;28;20292;-74
2023/04/26 14:08:22;;;;;;;;;;;20.40;99.90;;;;;;5076572;28;19909;-73
2023/04/26 14:10:47;;;;;;;;;;;21.00;99.90;;;;;;5076438;28;19957;-73
2023/04/26 14:13:14;;;;;;;;;;;21.30;99.90;;;;;;5076404;28;20396;-75